Time;durP1;ratioP1;P1;durP2;ratioP2;P2;SDS_P1;SDS_P2;PMS_P1;PMS_P2;Temp;Humidity;BMP_temperature;BMP_pressure;BME280_temperature;BME280_humidity;BME280_pressure;Samples;Min_cycle;Max_cycle;Signal;HPM_P1;HPM_P2
2022/12/15 00:40:25;;;;;;;7.28;1.73;;;-5.00;99.90;;;;;;4996495;28;20435;-86
2022/12/15 00:42:50;;;;;;;9.88;2.00;;;-5.00;99.90;;;;;;4995874;28;20026;-86
2022/12/15 00:45:16;;;;;;;8.35;1.70;;;-4.90;99.90;;;;;;4996611;28;20050;-85
2022/12/15 00:47:42;;;;;;;7.88;1.40;;;-4.90;99.90;;;;;;4995008;28;20575;-85
2022/12/15 01:20:19;;;;;;;28.08;8.68;;;-5.20;99.90;;;;;;4994484;28;20555;-86
2022/12/15 01:22:48;;;;;;;22.58;8.15;;;-5.20;99.90;;;;;;5026194;28;20038;-86
2022/12/15 01:25:15;;;;;;;19.23;8.48;;;-5.20;99.90;;;;;;4993071;28;20464;-84
2022/12/15 01:27:41;;;;;;;27.75;8.18;;;-5.30;99.90;;;;;;4993905;28;20517;-86
2022/12/15 01:30:09;;;;;;;28.67;8.68;;;-5.30;99.90;;;;;;4992765;28;20026;-85
2022/12/15 01:32:35;;;;;;;37.65;10.43;;;-5.40;99.90;;;;;;4992270;28;20137;-86
2022/12/15 01:35:01;;;;;;;27.33;8.80;;;-5.50;99.90;;;;;;4992784;28;20121;-85
2022/12/15 01:37:27;;;;;;;29.00;8.63;;;-5.50;99.90;;;;;;5024721;28;20038;-85
2022/12/15 01:42:37;;;;;;;27.25;8.93;;;-5.60;99.90;;;;;;4994153;28;20053;-86
2022/12/15 01:45:27;;;;;;;19.73;6.95;;;-5.60;99.90;;;;;;4992950;28;20034;-85
2022/12/15 01:47:59;;;;;;;;;;;-5.60;99.90;;;;;;4993296;28;20036;-85
2022/12/15 01:50:25;;;;;;;20.92;6.60;;;-5.60;99.90;;;;;;5025475;28;19906;-86
2022/12/15 01:52:53;;;;;;;20.08;6.55;;;-5.60;99.90;;;;;;5024613;28;20030;-86
2022/12/15 01:55:24;;;;;;;20.42;5.75;;;-5.60;99.90;;;;;;4991723;28;20026;-85
2022/12/15 01:57:53;;;;;;;;;;;-5.60;99.90;;;;;;4993334;28;20165;-86
2022/12/15 02:00:18;;;;;;;9.63;3.40;;;-5.50;99.90;;;;;;4991804;28;19921;-87
2022/12/15 02:02:44;;;;;;;9.93;2.85;;;-5.50;99.90;;;;;;4992027;28;20042;-85
2022/12/15 02:05:10;;;;;;;9.45;3.20;;;-5.40;99.90;;;;;;4992366;28;20037;-85
2022/12/15 02:07:36;;;;;;;20.25;7.60;;;-5.30;99.90;;;;;;5024910;28;20155;-85
2022/12/15 02:10:06;;;;;;;13.73;4.82;;;-5.30;99.90;;;;;;4991994;28;20056;-85
2022/12/15 02:12:50;;;;;;;19.20;6.13;;;-5.30;99.90;;;;;;4991446;28;20137;-86
2022/12/15 02:15:40;;;;;;;13.15;4.15;;;-5.30;99.90;;;;;;4991727;28;20046;-85
2022/12/15 02:18:06;;;;;;;14.00;3.78;;;-5.30;99.90;;;;;;4992207;28;20026;-86
2022/12/15 02:21:05;;;;;;;21.63;7.03;;;-5.30;99.90;;;;;;4991697;28;20037;-86
2022/12/15 02:24:09;;;;;;;13.00;4.95;;;-5.30;99.90;;;;;;4993017;28;20476;-86
2022/12/15 02:26:57;;;;;;;20.10;5.43;;;-5.30;99.90;;;;;;4992949;28;20042;-86
2022/12/15 02:29:28;;;;;;;13.15;4.03;;;-5.30;99.90;;;;;;4991851;28;20496;-87
2022/12/15 02:32:02;;;;;;;11.70;3.15;;;-5.30;99.90;;;;;;4991552;28;20045;-85
2022/12/15 02:34:39;;;;;;;6.72;2.25;;;-5.20;99.90;;;;;;4991434;28;20480;-86
2022/12/15 02:37:11;;;;;;;10.57;3.78;;;-5.20;99.90;;;;;;4991866;28;20038;-86
2022/12/15 02:39:36;;;;;;;15.90;5.55;;;-5.10;99.90;;;;;;4991657;28;20502;-86
2022/12/15 02:42:02;;;;;;;22.70;6.50;;;-5.00;99.90;;;;;;4991423;28;20034;-86
2022/12/15 02:44:30;;;;;;;25.67;7.45;;;-5.10;99.90;;;;;;4991197;28;20117;-86
2022/12/15 02:47:12;;;;;;;15.75;5.63;;;-5.20;99.90;;;;;;4991197;28;20109;-85
2022/12/15 02:49:52;;;;;;;16.52;6.50;;;-5.20;99.90;;;;;;4991438;28;20466;-86
2022/12/15 02:52:47;;;;;;;17.83;5.10;;;-5.30;99.90;;;;;;4991094;28;20061;-85
2022/12/15 02:55:31;;;;;;;28.67;6.40;;;-5.30;99.90;;;;;;4990817;28;20440;-86
2022/12/15 02:58:04;;;;;;;17.58;6.43;;;-5.30;99.90;;;;;;4990897;28;20105;-86
2022/12/15 03:00:37;;;;;;;23.52;8.32;;;-5.40;99.90;;;;;;4990960;28;20031;-86
2022/12/15 03:03:03;;;;;;;18.30;5.50;;;-5.50;99.90;;;;;;4991088;28;20038;-86
2022/12/15 03:05:30;;;;;;;20.67;5.55;;;-5.60;99.90;;;;;;4990990;28;20129;-86
2022/12/15 03:07:56;;;;;;;13.50;4.93;;;-5.60;99.90;;;;;;4991200;28;20038;-85
2022/12/15 03:10:24;;;;;;;15.85;5.18;;;-5.60;99.90;;;;;;4991558;28;20037;-85
2022/12/15 03:12:50;;;;;;;11.60;4.65;;;-5.60;99.90;;;;;;4991185;28;20055;-86
2022/12/15 03:15:17;;;;;;;13.23;3.88;;;-5.60;99.90;;;;;;4991465;28;20787;-86
2022/12/15 03:17:42;;;;;;;11.88;4.10;;;-5.70;99.90;;;;;;4991482;28;20188;-86
2022/12/15 03:20:09;;;;;;;12.55;4.50;;;-5.60;99.90;;;;;;4990652;28;20117;-86
2022/12/15 03:22:35;;;;;;;9.75;3.50;;;-5.70;99.90;;;;;;4991361;28;20026;-86
2022/12/15 03:25:01;;;;;;;12.07;3.92;;;-5.70;99.90;;;;;;4992271;28;20057;-86
2022/12/15 03:27:28;;;;;;;15.57;3.58;;;-5.70;99.90;;;;;;4991398;28;20145;-86
2022/12/15 03:29:54;;;;;;;12.02;4.70;;;-5.60;99.90;;;;;;4990704;28;20088;-86
2022/12/15 03:32:19;;;;;;;13.85;4.82;;;-5.70;99.90;;;;;;4990403;28;20034;-86
2022/12/15 03:34:45;;;;;;;9.63;3.90;;;-5.70;99.90;;;;;;4991923;28;20026;-86
2022/12/15 03:37:10;;;;;;;14.15;4.75;;;-5.70;99.90;;;;;;4990648;28;20045;-86
2022/12/15 03:39:36;;;;;;;17.77;4.65;;;-5.70;99.90;;;;;;4991281;28;20114;-86
2022/12/15 03:42:02;;;;;;;11.75;4.28;;;-5.70;99.90;;;;;;4992814;28;20037;-86
2022/12/15 03:44:27;;;;;;;15.30;3.92;;;-5.80;99.90;;;;;;4992873;28;20571;-85
2022/12/15 03:46:54;;;;;;;11.65;4.47;;;-5.80;99.90;;;;;;4992117;28;20061;-86
2022/12/15 03:49:20;;;;;;;13.40;4.28;;;-5.80;99.90;;;;;;4992422;28;20062;-86
2022/12/15 03:51:45;;;;;;;10.60;5.15;;;-5.80;99.90;;;;;;4992334;28;20057;-86
2022/12/15 03:54:14;;;;;;;12.85;5.10;;;-5.80;99.90;;;;;;4991219;28;20030;-86
2022/12/15 03:56:40;;;;;;;14.88;5.75;;;-5.90;99.90;;;;;;4992402;28;20042;-85
2022/12/15 03:59:06;;;;;;;17.88;6.60;;;-5.90;99.90;;;;;;4991728;28;20026;-86
2022/12/15 04:01:34;;;;;;;17.38;6.38;;;-5.90;99.90;;;;;;4995166;28;20069;-87
2022/12/15 04:04:01;;;;;;;18.75;5.68;;;-6.00;99.90;;;;;;4995008;28;20030;-85
2022/12/15 04:06:27;;;;;;;19.38;6.10;;;-6.10;99.90;;;;;;4995294;28;20031;-86
2022/12/15 04:08:53;;;;;;;15.38;4.95;;;-6.10;99.90;;;;;;4995154;28;20028;-86
2022/12/15 04:11:19;;;;;;;15.30;5.63;;;-6.10;99.90;;;;;;4994515;28;20030;-87
2022/12/15 04:13:44;;;;;;;17.63;5.25;;;-6.10;99.90;;;;;;4995922;28;20030;-86
2022/12/15 04:16:10;;;;;;;14.73;5.07;;;-6.20;99.90;;;;;;4994520;28;20070;-86
2022/12/15 04:18:36;;;;;;;12.85;5.18;;;-6.20;99.90;;;;;;4993998;28;20026;-86
2022/12/15 04:21:02;;;;;;;14.15;4.63;;;-6.20;99.90;;;;;;4994697;28;20030;-86
2022/12/15 04:23:27;;;;;;;11.88;4.75;;;-6.10;99.90;;;;;;4994134;28;20061;-86
2022/12/15 05:32:01;;;;;;;7.57;2.85;;;-6.10;99.90;;;;;;4994740;28;20049;-85
2022/12/15 05:34:29;;;;;;;6.63;2.55;;;-6.10;99.90;;;;;;4993201;28;20094;-85
2022/12/15 05:36:56;;;;;;;8.18;2.60;;;-6.00;99.90;;;;;;4992038;28;20042;-86
2022/12/15 05:39:23;;;;;;;5.20;1.80;;;-5.90;99.90;;;;;;4992511;28;20037;-85
2022/12/15 05:41:50;;;;;;;13.27;3.92;;;-5.90;99.90;;;;;;4994076;28;20034;-85
2022/12/15 05:44:17;;;;;;;12.02;3.58;;;-5.80;99.90;;;;;;5025930;28;20423;-86
2022/12/15 05:46:43;;;;;;;8.13;3.10;;;-5.90;99.90;;;;;;4993741;28;20100;-85
2022/12/15 05:49:12;;;;;;;14.02;3.95;;;-5.90;99.90;;;;;;4994552;28;20030;-86
2022/12/15 05:51:39;;;;;;;13.23;3.35;;;-6.00;99.90;;;;;;4993838;28;20062;-86
2022/12/15 05:54:08;;;;;;;8.43;4.00;;;-6.10;99.90;;;;;;4992731;28;20022;-85
2022/12/15 05:56:34;;;;;;;11.05;3.03;;;-6.10;99.90;;;;;;4993526;28;20044;-86
2022/12/15 05:59:00;;;;;;;15.40;4.50;;;-6.10;99.90;;;;;;4992759;28;20019;-87
2022/12/15 06:01:27;;;;;;;14.88;4.95;;;-6.20;99.90;;;;;;4992590;28;20096;-87
2022/12/15 06:03:53;;;;;;;18.00;4.63;;;-6.20;99.90;;;;;;4992852;28;20476;-86
2022/12/15 06:06:19;;;;;;;11.38;3.45;;;-6.20;99.90;;;;;;4991779;28;20022;-87
2022/12/15 06:08:45;;;;;;;12.15;3.75;;;-6.20;99.90;;;;;;4992558;28;20041;-87
2022/12/15 06:11:12;;;;;;;9.48;2.97;;;-6.20;99.90;;;;;;4991988;28;20037;-86
2022/12/15 06:13:38;;;;;;;13.85;3.28;;;-6.20;99.90;;;;;;4991382;28;20143;-86
2022/12/15 06:16:08;;;;;;;13.45;3.53;;;-6.20;99.90;;;;;;4994780;28;20053;-87
2022/12/15 06:18:38;;;;;;;12.57;3.13;;;-6.20;99.90;;;;;;4992214;28;20022;-87
2022/12/15 06:21:07;;;;;;;7.50;2.13;;;-6.10;99.90;;;;;;4991809;28;20027;-86
2022/12/15 06:23:35;;;;;;;9.05;2.90;;;-6.10;99.90;;;;;;4991781;28;20417;-86
2022/12/15 06:26:26;;;;;;;9.40;2.67;;;-6.00;99.90;;;;;;4993180;28;20523;-87
2022/12/15 06:28:55;;;;;;;8.48;2.50;;;-6.00;99.90;;;;;;4973607;28;20034;-87
2022/12/15 06:31:21;;;;;;;7.93;1.38;;;-5.80;99.90;;;;;;4973360;28;20037;-86
2022/12/15 06:33:49;;;;;;;5.97;1.33;;;-5.80;99.90;;;;;;4972589;28;20073;-87
2022/12/15 06:36:16;;;;;;;5.95;1.95;;;-5.70;99.90;;;;;;4984782;28;20125;-87
2022/12/15 06:38:42;;;;;;;4.18;1.42;;;-5.60;99.90;;;;;;4993384;28;20189;-87
2022/12/15 06:41:10;;;;;;;2.85;1.48;;;-5.60;99.90;;;;;;5025209;28;20026;-86
2022/12/15 06:43:36;;;;;;;4.75;2.05;;;-5.50;99.90;;;;;;4992379;28;20030;-86
2022/12/15 06:46:03;;;;;;;5.18;1.60;;;-5.50;99.90;;;;;;4993330;28;20100;-86
2022/12/15 06:48:29;;;;;;;12.60;1.10;;;-5.50;99.90;;;;;;4991825;28;20054;-85
2022/12/15 06:50:55;;;;;;;7.38;2.22;;;-5.40;99.90;;;;;;4992685;28;20033;-85
2022/12/15 06:53:22;;;;;;;9.93;3.80;;;-5.40;99.90;;;;;;4991129;28;20026;-89
2022/12/15 06:55:49;;;;;;;4.25;2.47;;;-5.40;99.90;;;;;;4991796;28;20039;-88
2022/12/15 06:58:15;;;;;;;7.22;3.08;;;-5.50;99.90;;;;;;4999175;28;20061;-87
2022/12/15 07:00:43;;;;;;;11.07;3.08;;;-5.50;99.90;;;;;;5002552;28;20062;-87
2022/12/15 07:03:14;;;;;;;7.30;2.30;;;-5.50;99.90;;;;;;5000809;28;20037;-87
2022/12/15 07:05:42;;;;;;;10.93;2.10;;;-5.50;99.90;;;;;;5002784;28;20021;-88
2022/12/15 07:08:11;;;;;;;9.13;2.78;;;-5.50;99.90;;;;;;5025022;28;20213;-87
2022/12/15 07:10:42;;;;;;;8.07;2.10;;;-5.50;99.90;;;;;;5003984;28;20080;-86
2022/12/15 07:13:10;;;;;;;8.02;2.10;;;-5.50;99.90;;;;;;4999922;28;20026;-87
2022/12/15 07:15:36;;;;;;;3.97;1.60;;;-5.50;99.90;;;;;;5002924;28;20037;-86
2022/12/15 07:18:02;;;;;;;7.65;2.20;;;-5.50;99.90;;;;;;5002770;28;20026;-88
2022/12/15 07:20:27;;;;;;;3.00;1.30;;;-5.50;99.90;;;;;;5000323;28;20014;-86
2022/12/15 07:22:53;;;;;;;9.88;3.40;;;-5.40;99.90;;;;;;5000938;28;20034;-86
2022/12/15 07:25:19;;;;;;;4.97;2.33;;;-5.50;99.90;;;;;;5001479;28;20057;-86
2022/12/15 07:27:45;;;;;;;5.63;2.40;;;-5.50;99.90;;;;;;5000497;28;20475;-86
2022/12/15 07:30:12;;;;;;;6.47;1.90;;;-5.40;99.90;;;;;;5000321;28;20026;-88
2022/12/15 07:32:38;;;;;;;7.25;2.05;;;-5.40;99.90;;;;;;5001122;28;20026;-86
2022/12/15 07:35:04;;;;;;;4.82;1.60;;;-5.30;99.90;;;;;;5000657;28;20558;-85
2022/12/15 07:37:30;;;;;;;7.35;1.80;;;-5.20;99.90;;;;;;4999235;28;20446;-85
2022/12/15 07:39:56;;;;;;;5.13;1.90;;;-5.20;99.90;;;;;;5000587;28;20590;-87
2022/12/15 07:42:22;;;;;;;3.92;1.73;;;-5.10;99.90;;;;;;4999347;28;20038;-87
2022/12/15 07:44:48;;;;;;;3.83;1.77;;;-5.00;99.90;;;;;;4999569;28;20088;-86
2022/12/15 07:47:14;;;;;;;7.65;2.28;;;-5.00;99.90;;;;;;5008423;28;20029;-85
2022/12/15 07:49:40;;;;;;;8.77;2.30;;;-5.00;99.90;;;;;;5012201;28;20092;-88
2022/12/15 07:52:06;;;;;;;6.40;2.25;;;-5.00;99.90;;;;;;5012331;28;20022;-87
2022/12/15 07:54:32;;;;;;;7.25;2.00;;;-5.00;99.90;;;;;;5011361;28;20030;-86
2022/12/15 07:56:58;;;;;;;8.70;1.77;;;-5.10;99.90;;;;;;5004973;28;20034;-87
2022/12/15 07:59:25;;;;;;;5.85;1.70;;;-5.10;99.90;;;;;;4991238;28;20026;-86
2022/12/15 08:01:52;;;;;;;8.35;2.22;;;-5.10;99.90;;;;;;4992241;28;20034;-87
2022/12/15 08:04:20;;;;;;;3.85;1.40;;;-5.10;99.90;;;;;;4991724;28;20119;-86
2022/12/15 08:06:46;;;;;;;3.55;1.60;;;-5.00;99.90;;;;;;4993072;28;20027;-86
2022/12/15 08:09:11;;;;;;;4.05;1.55;;;-5.00;99.90;;;;;;4993473;28;20061;-86
2022/12/15 08:11:37;;;;;;;3.72;1.20;;;-5.00;99.90;;;;;;4992236;28;20037;-87
2022/12/15 08:14:03;;;;;;;4.25;1.20;;;-4.90;99.90;;;;;;4991888;28;20037;-86
2022/12/15 08:16:29;;;;;;;2.65;1.00;;;-4.90;99.90;;;;;;4990860;28;20085;-86
2022/12/15 08:18:58;;;;;;;7.07;1.65;;;-4.80;99.90;;;;;;4991998;28;20027;-88
2022/12/15 08:21:24;;;;;;;10.73;3.88;;;-4.90;99.90;;;;;;4991287;28;20027;-86
2022/12/15 08:23:50;;;;;;;17.63;5.65;;;-4.80;99.90;;;;;;4992261;28;20053;-87
2022/12/15 08:26:17;;;;;;;15.32;5.53;;;-4.90;99.90;;;;;;5007089;28;20072;-86
2022/12/15 08:28:43;;;;;;;48.38;16.42;;;-5.00;99.90;;;;;;4996995;28;20036;-86
2022/12/15 08:31:15;;;;;;;42.95;18.17;;;-5.10;99.90;;;;;;5003135;28;20108;-86
2022/12/15 08:33:42;;;;;;;24.33;9.35;;;-5.20;99.90;;;;;;5010830;28;20117;-86
2022/12/15 08:36:10;;;;;;;19.88;9.05;;;-5.20;99.90;;;;;;5004416;28;20101;-86
2022/12/15 08:38:40;;;;;;;36.70;14.35;;;-5.30;99.90;;;;;;4999366;28;20113;-88
2022/12/15 08:41:11;;;;;;;36.97;15.45;;;-5.30;99.90;;;;;;4991784;28;20069;-87
2022/12/15 08:43:38;;;;;;;47.75;14.02;;;-5.30;99.90;;;;;;4991461;28;20034;-87
2022/12/15 08:46:07;;;;;;;41.63;14.82;;;-5.40;99.90;;;;;;4994057;28;20105;-87
2022/12/15 08:48:34;;;;;;;39.33;12.23;;;-5.40;99.90;;;;;;4994885;28;20026;-87
2022/12/15 08:51:00;;;;;;;31.20;11.90;;;-5.50;99.90;;;;;;5027765;28;20261;-88
2022/12/15 08:53:26;;;;;;;28.77;9.40;;;-5.50;99.90;;;;;;4987217;28;20061;-89
2022/12/15 08:55:51;;;;;;;30.15;9.25;;;-5.50;99.90;;;;;;4993827;28;20566;-88
2022/12/15 08:58:18;;;;;;;26.83;9.15;;;-5.50;99.90;;;;;;4994357;28;20029;-87
2022/12/15 09:00:43;;;;;;;12.43;4.20;;;-5.50;99.90;;;;;;4992450;28;20042;-87
2022/12/15 09:03:09;;;;;;;9.57;2.97;;;-5.40;99.90;;;;;;4993770;28;20434;-86
2022/12/15 09:05:36;;;;;;;20.85;6.38;;;-5.40;99.90;;;;;;4990761;28;20104;-87
2022/12/15 09:08:02;;;;;;;17.20;7.38;;;-5.40;99.90;;;;;;5002607;28;20384;-87
2022/12/15 09:10:28;;;;;;;20.38;7.53;;;-5.30;99.90;;;;;;5004471;28;20021;-86
2022/12/15 09:12:54;;;;;;;24.63;8.68;;;-5.30;99.90;;;;;;4998763;28;20169;-87
2022/12/15 09:15:20;;;;;;;19.23;6.68;;;-5.30;99.90;;;;;;4994819;28;20117;-88
2022/12/15 09:17:46;;;;;;;18.70;7.38;;;-5.30;99.90;;;;;;5001539;28;20038;-87
2022/12/15 09:20:13;;;;;;;14.38;6.07;;;-5.20;99.90;;;;;;5010208;28;20027;-87
2022/12/15 09:22:40;;;;;;;16.83;5.95;;;-5.10;99.90;;;;;;5003667;28;20097;-87
2022/12/15 09:25:07;;;;;;;10.88;4.00;;;-5.00;99.90;;;;;;4992462;28;20047;-87
2022/12/15 09:27:36;;;;;;;53.92;16.00;;;-4.90;99.90;;;;;;4993256;28;20048;-87
2022/12/15 09:30:03;;;;;;;26.83;8.73;;;-4.80;99.90;;;;;;4993751;28;20026;-86
2022/12/15 09:32:28;;;;;;;31.45;10.88;;;-4.80;99.90;;;;;;4997538;28;20026;-87
2022/12/15 09:34:57;;;;;;;30.08;10.25;;;-4.80;99.90;;;;;;5027245;28;20472;-86
2022/12/15 09:37:23;;;;;;;25.65;7.93;;;-4.70;99.90;;;;;;4994206;28;20034;-86
2022/12/15 09:39:48;;;;;;;24.25;8.32;;;-4.70;99.90;;;;;;4999889;28;20041;-86
2022/12/15 09:42:24;;;;;;;21.63;7.72;;;-4.70;99.90;;;;;;4997036;28;20064;-86
2022/12/15 09:45:01;;;;;;;25.23;6.35;;;-4.70;99.90;;;;;;5001094;28;20022;-87
2022/12/15 09:47:32;;;;;;;16.48;6.22;;;-4.60;99.90;;;;;;4992449;28;20022;-87
2022/12/15 09:50:01;;;;;;;16.83;5.50;;;-4.40;99.90;;;;;;4994984;28;20095;-87
2022/12/15 09:52:42;;;;;;;14.07;5.28;;;-4.10;99.90;;;;;;4996613;28;20034;-87
2022/12/15 09:55:20;;;;;;;14.20;5.65;;;-3.70;99.90;;;;;;4994450;28;20029;-88
2022/12/15 09:58:02;;;;;;;16.35;7.22;;;-3.30;99.90;;;;;;4992758;28;20065;-87
2022/12/15 10:00:44;;;;;;;23.70;9.23;;;-2.80;99.90;;;;;;4993303;28;20026;-88
2022/12/15 10:03:32;;;;;;;21.77;7.63;;;-2.40;99.90;;;;;;4987769;28;20033;-88
2022/12/15 10:06:07;;;;;;;18.85;7.88;;;-1.80;99.90;;;;;;4991826;28;20039;-89
2022/12/15 10:08:47;;;;;;;23.83;9.27;;;-1.50;99.90;;;;;;4993141;28;20058;-88
2022/12/15 10:11:36;;;;;;;17.13;7.32;;;-1.20;99.90;;;;;;4990602;28;20038;-87
2022/12/15 10:14:11;;;;;;;25.67;8.38;;;-0.90;99.90;;;;;;4992193;28;20056;-88
2022/12/15 10:16:47;;;;;;;22.35;8.50;;;-0.60;99.90;;;;;;5003747;28;20443;-89
2022/12/15 10:19:33;;;;;;;21.70;8.43;;;-0.30;99.90;;;;;;4988720;28;20066;-90
2022/12/15 10:21:59;;;;;;;24.00;9.18;;;0.10;99.90;;;;;;4994449;28;20480;-90
2022/12/15 10:24:29;;;;;;;24.15;10.23;;;0.30;99.90;;;;;;4993595;28;20036;-91
2022/12/15 10:27:18;;;;;;;20.08;8.40;;;0.70;99.90;;;;;;4992170;28;20468;-90
2022/12/15 10:29:58;;;;;;;22.88;9.32;;;1.00;99.90;;;;;;4992495;28;20058;-90
2022/12/15 10:32:53;;;;;;;23.67;9.23;;;1.40;99.90;;;;;;4992731;28;20093;-90
2022/12/15 10:35:26;;;;;;;22.08;7.97;;;1.70;99.90;;;;;;4992083;28;20121;-91
2022/12/15 10:37:58;;;;;;;18.73;7.30;;;2.00;99.90;;;;;;4992176;28;20035;-91
2022/12/15 10:40:45;;;;;;;23.55;9.55;;;2.20;99.90;;;;;;4992722;28;20050;-91
2022/12/15 10:43:25;;;;;;;24.50;9.93;;;2.60;99.90;;;;;;4993310;28;20522;-91
2022/12/15 10:46:14;;;;;;;16.65;9.05;;;2.90;99.90;;;;;;5024764;28;20563;-91
2022/12/15 10:48:42;;;;;;;27.70;10.48;;;3.30;99.90;;;;;;4992858;28;20031;-90
2022/12/15 10:51:27;;;;;;;21.13;9.60;;;3.50;99.90;;;;;;5025994;28;20038;-90
2022/12/15 10:53:59;;;;;;;24.52;11.43;;;3.80;99.90;;;;;;4991681;28;20069;-91
2022/12/15 10:56:27;;;;;;;37.65;11.00;;;4.10;99.90;;;;;;5023107;28;20065;-91
2022/12/15 10:58:59;;;;;;;33.45;11.60;;;4.40;99.90;;;;;;4993725;28;20052;-91
2022/12/15 11:01:27;;;;;;;28.08;10.25;;;4.60;99.90;;;;;;4990735;28;20092;-90
2022/12/15 11:03:55;;;;;;;22.52;8.93;;;4.80;99.90;;;;;;4993166;28;20018;-91
2022/12/15 11:06:27;;;;;;;20.88;8.50;;;5.00;99.90;;;;;;4993474;28;20049;-92
2022/12/15 11:08:56;;;;;;;20.33;8.85;;;5.30;99.90;;;;;;4991311;28;20034;-92
2022/12/15 11:14:24;;;;;;;17.27;8.82;;;5.80;98.90;;;;;;4989355;28;20168;-91
2022/12/15 11:16:57;;;;;;;18.38;8.93;;;6.10;97.70;;;;;;4997723;28;20034;-92
2022/12/15 11:19:37;;;;;;;18.30;8.48;;;6.40;97.00;;;;;;5002422;28;20034;-92
2022/12/15 11:22:23;;;;;;;13.43;4.47;;;6.70;96.10;;;;;;4994781;28;20105;-93
2022/12/15 11:24:58;;;;;;;10.55;3.13;;;7.00;95.30;;;;;;4992904;28;20047;-92
2022/12/15 11:27:37;;;;;;;6.32;1.55;;;7.40;94.80;;;;;;4993172;28;20041;-93
2022/12/15 11:30:18;;;;;;;10.13;3.22;;;7.70;93.90;;;;;;4993556;28;20451;-93
2022/12/15 11:32:54;;;;;;;13.07;5.80;;;8.10;93.00;;;;;;4993013;28;20499;-90
2022/12/15 11:35:42;;;;;;;14.40;6.47;;;8.30;92.20;;;;;;4992926;28;20042;-90
2022/12/15 11:38:36;;;;;;;6.32;2.60;;;8.50;91.50;;;;;;4993185;28;20022;-91
2022/12/15 11:41:24;;;;;;;4.07;1.35;;;8.60;90.90;;;;;;4992434;28;20030;-91
2022/12/15 11:44:21;;;;;;;4.85;1.92;;;8.90;90.40;;;;;;4993027;28;20093;-92
2022/12/15 11:46:57;;;;;;;4.00;1.17;;;9.20;89.70;;;;;;4993795;28;20030;-91
2022/12/15 11:50:04;;;;;;;5.50;1.75;;;9.60;88.60;;;;;;4993098;28;20052;-92
2022/12/15 11:52:49;;;;;;;5.65;1.27;;;10.00;86.70;;;;;;4964368;28;20034;-91
2022/12/15 11:55:23;;;;;;;4.95;1.70;;;10.30;85.00;;;;;;4992822;28;20110;-91
2022/12/15 11:58:03;;;;;;;4.43;1.60;;;10.50;84.30;;;;;;4992311;28;20062;-91
2022/12/15 12:00:40;;;;;;;6.90;2.67;;;10.70;83.40;;;;;;4992563;28;20026;-91
2022/12/15 12:03:14;;;;;;;12.00;3.00;;;11.00;82.30;;;;;;4994127;28;20030;-91
2022/12/15 12:05:40;;;;;;;7.38;2.78;;;11.30;81.20;;;;;;4994114;28;20042;-91
2022/12/15 12:08:22;;;;;;;6.57;2.05;;;11.70;80.00;;;;;;4993829;28;20490;-91
2022/12/15 12:11:13;;;;;;;21.20;9.57;;;11.90;79.30;;;;;;4994295;28;20197;-91
2022/12/15 12:14:01;;;;;;;5.95;3.45;;;12.10;77.60;;;;;;4992338;28;20019;-91
2022/12/15 12:16:44;;;;;;;8.93;3.95;;;12.10;76.50;;;;;;4992735;28;20121;-91
2022/12/15 12:19:15;;;;;;;21.85;10.77;;;12.30;75.50;;;;;;4992400;28;20037;-90
2022/12/15 12:21:47;;;;;;;12.73;6.72;;;12.40;75.00;;;;;;4995988;28;20114;-90
2022/12/15 12:24:51;;;;;;;9.38;3.83;;;12.70;74.60;;;;;;4996410;28;20038;-91
2022/12/15 12:27:43;;;;;;;5.88;1.95;;;13.00;73.20;;;;;;4980314;28;20042;-91
2022/12/15 12:30:16;;;;;;;3.83;1.85;;;13.40;72.30;;;;;;5016721;28;20030;-90
2022/12/15 12:32:53;;;;;;;2.45;1.20;;;13.60;71.50;;;;;;4996490;28;20026;-92
2022/12/15 12:35:41;;;;;;;3.67;1.27;;;13.80;70.40;;;;;;4998649;28;20039;-91
2022/12/15 12:38:11;;;;;;;1.65;0.90;;;13.70;69.30;;;;;;5030189;28;20026;-91
2022/12/15 12:40:43;;;;;;;2.58;1.10;;;13.80;69.30;;;;;;5001566;28;20037;-91
2022/12/15 12:43:16;;;;;;;4.47;0.68;;;13.90;68.50;;;;;;4996900;28;20027;-91
2022/12/15 12:45:58;;;;;;;5.15;1.10;;;14.00;68.10;;;;;;4996684;28;20030;-92
2022/12/15 12:48:26;;;;;;;3.45;1.30;;;14.10;67.40;;;;;;5025311;28;20049;-91
2022/12/15 12:51:08;;;;;;;3.55;1.70;;;14.00;67.00;;;;;;4994949;28;20045;-91
2022/12/15 12:53:34;;;;;;;4.65;1.50;;;14.10;66.50;;;;;;5026135;28;20035;-90
2022/12/15 12:56:00;;;;;;;2.42;1.00;;;14.10;66.00;;;;;;4994930;28;20030;-90
2022/12/15 12:58:37;;;;;;;2.42;0.73;;;13.90;65.90;;;;;;4994707;28;20134;-90
2022/12/15 13:01:26;;;;;;;2.30;0.93;;;13.80;65.90;;;;;;4994322;28;20026;-91
2022/12/15 13:04:09;;;;;;;3.90;1.30;;;13.70;65.90;;;;;;4992595;28;20118;-90
2022/12/15 13:06:35;;;;;;;4.78;1.00;;;13.90;66.00;;;;;;4993220;28;20026;-91
2022/12/15 13:09:16;;;;;;;2.63;1.00;;;14.10;65.80;;;;;;4994099;28;20045;-90
2022/12/15 13:11:47;;;;;;;;;;;14.00;64.50;;;;;;4994022;28;20038;-91
2022/12/15 13:14:17;;;;;;;2.58;0.82;;;13.80;64.40;;;;;;4992902;28;19916;-89
2022/12/15 13:16:44;;;;;;;4.60;0.93;;;13.60;64.70;;;;;;4991622;28;20034;-89
2022/12/15 13:19:10;;;;;;;4.78;1.02;;;13.40;64.50;;;;;;4994468;28;20037;-91
2022/12/15 13:21:42;;;;;;;2.92;0.75;;;13.30;65.00;;;;;;4993801;28;20014;-90
2022/12/15 13:24:36;;;;;;;8.10;1.42;;;13.30;64.70;;;;;;4994113;28;20475;-90
2022/12/15 13:27:07;;;;;;;3.05;1.20;;;13.20;64.50;;;;;;4989115;28;20039;-91
2022/12/15 13:29:36;;;;;;;6.20;0.90;;;13.20;64.60;;;;;;4993587;28;20057;-91
2022/12/15 13:32:02;;;;;;;3.42;1.00;;;13.40;64.60;;;;;;4990251;28;20057;-90
2022/12/15 13:34:37;;;;;;;5.45;1.15;;;13.60;64.30;;;;;;4994838;28;20019;-91
2022/12/15 13:37:25;;;;;;;3.40;1.05;;;13.70;63.50;;;;;;4992558;28;20062;-90
2022/12/15 13:39:54;;;;;;;2.63;1.20;;;13.70;63.10;;;;;;4992044;28;20499;-90
2022/12/15 13:42:25;;;;;;;4.85;1.40;;;13.70;63.60;;;;;;4991111;28;20391;-91
2022/12/15 13:45:02;;;;;;;8.93;1.70;;;13.80;62.50;;;;;;4993329;28;20021;-90
2022/12/15 13:47:29;;;;;;;2.15;0.82;;;13.70;62.50;;;;;;4991918;28;20034;-90
2022/12/15 13:50:01;;;;;;;5.00;0.80;;;13.60;62.60;;;;;;4993132;28;20030;-90
2022/12/15 13:52:34;;;;;;;2.60;0.90;;;13.70;62.50;;;;;;4991424;28;20030;-91
2022/12/15 13:55:04;;;;;;;2.15;0.75;;;13.60;62.20;;;;;;4993281;28;20030;-90
2022/12/15 13:57:38;;;;;;;1.60;0.80;;;13.50;62.20;;;;;;4993026;28;20069;-90
2022/12/15 14:00:17;;;;;;;4.38;1.10;;;13.30;62.30;;;;;;4993254;28;20026;-91
2022/12/15 14:02:44;;;;;;;5.90;1.40;;;13.00;62.40;;;;;;4993365;28;20026;-90
2022/12/15 14:05:24;;;;;;;2.75;1.20;;;12.60;62.80;;;;;;4992802;28;20113;-90
2022/12/15 14:07:54;;;;;;;;;;;12.40;63.50;;;;;;4993580;28;20057;-90
2022/12/15 14:10:22;;;;;;;8.90;1.53;;;12.30;63.80;;;;;;4993251;28;19905;-90
2022/12/15 14:12:51;;;;;;;2.40;1.10;;;12.40;64.20;;;;;;4993981;28;20061;-90
2022/12/15 14:15:24;;;;;;;8.52;1.30;;;12.50;63.90;;;;;;4997008;28;20042;-90
2022/12/15 14:17:53;;;;;;;6.80;1.17;;;12.40;63.80;;;;;;4995348;28;20033;-90
2022/12/15 14:20:28;;;;;;;5.32;1.55;;;12.20;63.70;;;;;;4993384;28;20027;-90
2022/12/15 14:22:54;;;;;;;3.28;1.10;;;11.90;64.10;;;;;;4994136;28;20030;-91
2022/12/15 14:25:22;;;;;;;5.13;1.13;;;10.70;65.70;;;;;;4992943;28;20042;-89
2022/12/15 14:27:48;;;;;;;5.72;1.00;;;9.70;68.20;;;;;;4992772;28;20057;-89
2022/12/15 14:30:21;;;;;;;2.75;1.10;;;8.80;70.40;;;;;;4992448;28;20113;-91
2022/12/15 14:33:10;;;;;;;2.20;1.00;;;8.10;72.40;;;;;;4992406;28;20023;-91
2022/12/15 14:35:41;;;;;;;6.70;1.27;;;7.50;74.00;;;;;;4991423;28;20496;-89
2022/12/15 14:38:11;;;;;;;2.70;1.15;;;7.00;75.40;;;;;;4992756;28;20037;-89
2022/12/15 14:40:38;;;;;;;4.28;1.30;;;6.50;76.70;;;;;;4992537;28;20023;-90
2022/12/15 14:43:11;;;;;;;2.72;1.35;;;6.10;77.90;;;;;;4992497;28;20018;-90
2022/12/15 14:45:37;;;;;;;3.47;1.38;;;5.80;79.10;;;;;;4992525;28;20018;-89
2022/12/15 14:48:08;;;;;;;6.55;1.25;;;5.50;80.00;;;;;;5025178;28;20030;-89
2022/12/15 14:50:35;;;;;;;7.82;1.42;;;5.30;80.80;;;;;;4992416;28;20015;-89
2022/12/15 14:53:22;;;;;;;6.35;1.40;;;5.10;81.50;;;;;;4992560;28;20030;-88
2022/12/15 14:55:47;;;;;;;4.05;1.50;;;4.80;82.20;;;;;;4990476;28;20173;-90
2022/12/15 14:58:29;;;;;;;4.88;1.20;;;4.70;82.70;;;;;;4992464;28;20061;-89
2022/12/15 15:00:55;;;;;;;3.30;1.10;;;4.60;83.30;;;;;;5024138;28;20064;-89
2022/12/15 15:03:33;;;;;;;8.18;1.70;;;4.50;83.80;;;;;;5022045;28;20030;-92
2022/12/15 15:06:19;;;;;;;8.05;2.28;;;4.40;84.30;;;;;;4992586;28;20092;-88
2022/12/15 15:08:53;;;;;;;8.20;2.47;;;4.20;84.70;;;;;;4992087;28;20039;-90
2022/12/15 15:11:28;;;;;;;4.95;1.50;;;4.10;85.10;;;;;;4992091;28;20025;-90
2022/12/15 15:13:56;;;;;;;7.88;1.50;;;4.00;85.50;;;;;;4994116;28;20037;-90
2022/12/15 15:16:22;;;;;;;4.18;1.52;;;3.90;86.00;;;;;;5028300;28;20439;-89
2022/12/15 15:18:50;;;;;;;3.67;2.05;;;3.80;86.40;;;;;;4996026;28;20034;-89
2022/12/15 15:21:24;;;;;;;5.90;1.75;;;3.70;87.00;;;;;;4992668;28;20038;-89
2022/12/15 15:24:08;;;;;;;7.32;1.85;;;3.60;87.40;;;;;;4992721;28;20464;-89
2022/12/15 15:26:34;;;;;;;3.97;1.58;;;3.50;87.90;;;;;;4991692;28;20053;-89